sensor_id;sensor_type;location;lat;lon;timestamp;temperature;humidity
4749;DHT22;2388;53.582;9.962;2023-02-26T00:00:37;1.40;99.90
4749;DHT22;2388;53.582;9.962;2023-02-26T00:03:03;1.50;99.90
4749;DHT22;2388;53.582;9.962;2023-02-26T00:05:29;1.40;99.90
4749;DHT22;2388;53.582;9.962;2023-02-26T00:07:54;1.40;99.90
4749;DHT22;2388;53.582;9.962;2023-02-26T00:10:20;1.40;99.90
4749;DHT22;2388;53.582;9.962;2023-02-26T00:12:45;1.50;99.90
4749;DHT22;2388;53.582;9.962;2023-02-26T00:15:12;1.50;99.90
4749;DHT22;2388;53.582;9.962;2023-02-26T00:18:01;1.50;99.90
4749;DHT22;2388;53.582;9.962;2023-02-26T00:20:28;1.40;99.90
4749;DHT22;2388;53.582;9.962;2023-02-26T00:22:54;1.40;99.90
4749;DHT22;2388;53.582;9.962;2023-02-26T00:25:20;1.40;99.90
4749;DHT22;2388;53.582;9.962;2023-02-26T00:27:45;1.40;99.90
4749;DHT22;2388;53.582;9.962;2023-02-26T00:30:13;1.40;99.90
4749;DHT22;2388;53.582;9.962;2023-02-26T00:32:39;1.40;99.90
4749;DHT22;2388;53.582;9.962;2023-02-26T00:35:11;1.40;99.90
4749;DHT22;2388;53.582;9.962;2023-02-26T00:38:05;1.40;99.90
4749;DHT22;2388;53.582;9.962;2023-02-26T00:43:07;1.30;99.90
4749;DHT22;2388;53.582;9.962;2023-02-26T00:45:34;1.30;99.90
4749;DHT22;2388;53.582;9.962;2023-02-26T00:50:47;1.20;99.90
4749;DHT22;2388;53.582;9.962;2023-02-26T00:53:26;1.30;99.90
4749;DHT22;2388;53.582;9.962;2023-02-26T00:55:52;1.30;99.90
4749;DHT22;2388;53.582;9.962;2023-02-26T00:58:18;1.30;99.90
4749;DHT22;2388;53.582;9.962;2023-02-26T01:00:43;1.30;99.90
4749;DHT22;2388;53.582;9.962;2023-02-26T01:03:09;1.30;99.90
4749;DHT22;2388;53.582;9.962;2023-02-26T01:05:36;1.30;99.90
4749;DHT22;2388;53.582;9.962;2023-02-26T01:10:37;1.30;99.90
4749;DHT22;2388;53.582;9.962;2023-02-26T01:13:03;1.30;99.90
4749;DHT22;2388;53.582;9.962;2023-02-26T01:15:29;1.30;99.90
4749;DHT22;2388;53.582;9.962;2023-02-26T01:18:13;1.40;99.90
4749;DHT22;2388;53.582;9.962;2023-02-26T01:20:45;1.40;99.90
4749;DHT22;2388;53.582;9.962;2023-02-26T01:23:15;1.40;99.90
4749;DHT22;2388;53.582;9.962;2023-02-26T01:25:49;1.40;99.90
4749;DHT22;2388;53.582;9.962;2023-02-26T01:28:15;1.50;99.90
4749;DHT22;2388;53.582;9.962;2023-02-26T01:30:41;2.60;99.90
4749;DHT22;2388;53.582;9.962;2023-02-26T01:33:29;1.50;99.90
4749;DHT22;2388;53.582;9.962;2023-02-26T01:36:06;1.50;99.90
4749;DHT22;2388;53.582;9.962;2023-02-26T01:38:43;1.50;99.90
4749;DHT22;2388;53.582;9.962;2023-02-26T01:41:23;1.50;99.90
4749;DHT22;2388;53.582;9.962;2023-02-26T01:49:20;1.50;99.90
4749;DHT22;2388;53.582;9.962;2023-02-26T01:51:49;1.50;99.90
4749;DHT22;2388;53.582;9.962;2023-02-26T01:54:24;1.60;99.90
4749;DHT22;2388;53.582;9.962;2023-02-26T01:57:05;1.50;99.90
4749;DHT22;2388;53.582;9.962;2023-02-26T01:59:33;1.50;99.90
4749;DHT22;2388;53.582;9.962;2023-02-26T02:02:02;1.50;99.90
4749;DHT22;2388;53.582;9.962;2023-02-26T02:04:29;1.50;99.90
4749;DHT22;2388;53.582;9.962;2023-02-26T02:06:55;1.50;99.90
4749;DHT22;2388;53.582;9.962;2023-02-26T02:09:21;1.50;99.90
4749;DHT22;2388;53.582;9.962;2023-02-26T02:14:42;1.40;99.90
4749;DHT22;2388;53.582;9.962;2023-02-26T02:17:36;1.40;99.90
4749;DHT22;2388;53.582;9.962;2023-02-26T02:22:54;1.40;99.90
4749;DHT22;2388;53.582;9.962;2023-02-26T02:25:48;1.30;99.90
4749;DHT22;2388;53.582;9.962;2023-02-26T02:31:28;1.30;99.90
4749;DHT22;2388;53.582;9.962;2023-02-26T02:34:21;1.30;99.90
4749;DHT22;2388;53.582;9.962;2023-02-26T02:36:56;1.20;99.90
4749;DHT22;2388;53.582;9.962;2023-02-26T02:39:53;1.30;99.90
4749;DHT22;2388;53.582;9.962;2023-02-26T02:42:30;1.30;99.90
4749;DHT22;2388;53.582;9.962;2023-02-26T02:45:00;1.20;99.90
4749;DHT22;2388;53.582;9.962;2023-02-26T02:47:30;1.10;99.90
4749;DHT22;2388;53.582;9.962;2023-02-26T02:50:09;1.10;99.90
4749;DHT22;2388;53.582;9.962;2023-02-26T02:52:43;1.10;99.90
4749;DHT22;2388;53.582;9.962;2023-02-26T02:55:23;1.10;99.90
4749;DHT22;2388;53.582;9.962;2023-02-26T02:58:04;1.10;99.90
4749;DHT22;2388;53.582;9.962;2023-02-26T03:00:34;1.10;99.90
4749;DHT22;2388;53.582;9.962;2023-02-26T03:03:20;1.10;99.90
4749;DHT22;2388;53.582;9.962;2023-02-26T03:05:48;1.10;99.90
4749;DHT22;2388;53.582;9.962;2023-02-26T03:08:17;1.00;99.90
4749;DHT22;2388;53.582;9.962;2023-02-26T03:10:44;1.10;99.90
4749;DHT22;2388;53.582;9.962;2023-02-26T03:13:18;1.10;99.90
4749;DHT22;2388;53.582;9.962;2023-02-26T03:16:06;1.00;99.90
4749;DHT22;2388;53.582;9.962;2023-02-26T03:18:49;1.10;99.90
4749;DHT22;2388;53.582;9.962;2023-02-26T03:21:33;1.00;99.90
4749;DHT22;2388;53.582;9.962;2023-02-26T03:24:08;1.10;99.90
4749;DHT22;2388;53.582;9.962;2023-02-26T03:26:41;1.00;99.90
4749;DHT22;2388;53.582;9.962;2023-02-26T03:29:41;1.10;99.90
4749;DHT22;2388;53.582;9.962;2023-02-26T03:32:15;1.00;99.90
4749;DHT22;2388;53.582;9.962;2023-02-26T03:35:01;1.00;99.90
4749;DHT22;2388;53.582;9.962;2023-02-26T03:37:35;1.00;99.90
4749;DHT22;2388;53.582;9.962;2023-02-26T03:40:08;0.90;99.90
4749;DHT22;2388;53.582;9.962;2023-02-26T03:42:50;0.90;99.90
4749;DHT22;2388;53.582;9.962;2023-02-26T03:45:22;0.90;99.90
4749;DHT22;2388;53.582;9.962;2023-02-26T03:47:50;0.80;99.90
4749;DHT22;2388;53.582;9.962;2023-02-26T03:50:38;0.90;99.90
4749;DHT22;2388;53.582;9.962;2023-02-26T03:53:06;0.80;99.90
4749;DHT22;2388;53.582;9.962;2023-02-26T03:55:37;0.90;99.90
4749;DHT22;2388;53.582;9.962;2023-02-26T03:58:03;0.90;99.90
4749;DHT22;2388;53.582;9.962;2023-02-26T04:00:30;0.90;99.90
4749;DHT22;2388;53.582;9.962;2023-02-26T04:03:18;0.80;99.90
4749;DHT22;2388;53.582;9.962;2023-02-26T04:05:48;0.80;99.90
4749;DHT22;2388;53.582;9.962;2023-02-26T04:08:14;0.80;99.90
4749;DHT22;2388;53.582;9.962;2023-02-26T04:11:03;0.90;99.90
4749;DHT22;2388;53.582;9.962;2023-02-26T04:13:30;0.80;99.90
4749;DHT22;2388;53.582;9.962;2023-02-26T04:15:56;0.80;99.90
4749;DHT22;2388;53.582;9.962;2023-02-26T04:18:21;0.80;99.90
4749;DHT22;2388;53.582;9.962;2023-02-26T04:20:47;0.80;99.90
4749;DHT22;2388;53.582;9.962;2023-02-26T04:23:12;0.80;99.90
4749;DHT22;2388;53.582;9.962;2023-02-26T04:25:38;0.80;99.90
4749;DHT22;2388;53.582;9.962;2023-02-26T04:28:03;0.70;99.90
4749;DHT22;2388;53.582;9.962;2023-02-26T04:30:29;0.70;99.90
4749;DHT22;2388;53.582;9.962;2023-02-26T04:32:54;0.70;99.90
4749;DHT22;2388;53.582;9.962;2023-02-26T04:35:20;0.70;99.90
4749;DHT22;2388;53.582;9.962;2023-02-26T04:37:45;0.70;99.90
4749;DHT22;2388;53.582;9.962;2023-02-26T04:40:11;0.70;99.90
4749;DHT22;2388;53.582;9.962;2023-02-26T04:42:37;0.60;99.90
4749;DHT22;2388;53.582;9.962;2023-02-26T04:45:02;0.60;99.90
4749;DHT22;2388;53.582;9.962;2023-02-26T04:47:28;0.60;99.90
4749;DHT22;2388;53.582;9.962;2023-02-26T04:49:53;0.60;99.90
4749;DHT22;2388;53.582;9.962;2023-02-26T04:52:19;0.60;99.90
4749;DHT22;2388;53.582;9.962;2023-02-26T04:54:44;0.60;99.90
4749;DHT22;2388;53.582;9.962;2023-02-26T04:57:10;0.60;99.90
4749;DHT22;2388;53.582;9.962;2023-02-26T04:59:35;0.60;99.90
4749;DHT22;2388;53.582;9.962;2023-02-26T05:02:03;0.60;99.90
4749;DHT22;2388;53.582;9.962;2023-02-26T05:04:28;0.60;99.90
4749;DHT22;2388;53.582;9.962;2023-02-26T05:06:54;0.60;99.90
4749;DHT22;2388;53.582;9.962;2023-02-26T05:09:20;0.60;99.90
4749;DHT22;2388;53.582;9.962;2023-02-26T05:11:46;0.60;99.90
4749;DHT22;2388;53.582;9.962;2023-02-26T05:14:13;0.60;99.90
4749;DHT22;2388;53.582;9.962;2023-02-26T05:16:38;0.60;99.90
4749;DHT22;2388;53.582;9.962;2023-02-26T05:19:04;0.60;99.90
4749;DHT22;2388;53.582;9.962;2023-02-26T05:21:29;0.60;99.90
4749;DHT22;2388;53.582;9.962;2023-02-26T05:23:55;0.50;99.90
4749;DHT22;2388;53.582;9.962;2023-02-26T05:26:21;0.50;99.90
4749;DHT22;2388;53.582;9.962;2023-02-26T05:28:46;0.50;99.90
4749;DHT22;2388;53.582;9.962;2023-02-26T05:31:13;0.60;99.90
4749;DHT22;2388;53.582;9.962;2023-02-26T05:33:39;0.50;99.90
4749;DHT22;2388;53.582;9.962;2023-02-26T05:36:04;0.50;99.90
4749;DHT22;2388;53.582;9.962;2023-02-26T05:38:31;0.40;99.90
4749;DHT22;2388;53.582;9.962;2023-02-26T05:40:57;0.40;99.90
4749;DHT22;2388;53.582;9.962;2023-02-26T05:43:23;0.40;99.90
4749;DHT22;2388;53.582;9.962;2023-02-26T05:45:50;0.40;99.90
4749;DHT22;2388;53.582;9.962;2023-02-26T05:48:15;0.40;99.90
4749;DHT22;2388;53.582;9.962;2023-02-26T05:50:41;0.40;99.90
4749;DHT22;2388;53.582;9.962;2023-02-26T05:53:06;0.40;99.90
4749;DHT22;2388;53.582;9.962;2023-02-26T05:55:32;0.40;99.90
4749;DHT22;2388;53.582;9.962;2023-02-26T05:57:57;0.40;99.90
4749;DHT22;2388;53.582;9.962;2023-02-26T06:00:23;0.30;99.90
4749;DHT22;2388;53.582;9.962;2023-02-26T06:02:49;0.40;99.90
4749;DHT22;2388;53.582;9.962;2023-02-26T06:05:14;0.30;99.90
4749;DHT22;2388;53.582;9.962;2023-02-26T06:07:40;0.30;99.90
4749;DHT22;2388;53.582;9.962;2023-02-26T06:10:06;0.30;99.90
4749;DHT22;2388;53.582;9.962;2023-02-26T06:12:33;0.30;99.90
4749;DHT22;2388;53.582;9.962;2023-02-26T06:14:58;0.30;99.90
4749;DHT22;2388;53.582;9.962;2023-02-26T06:17:24;0.20;99.90
4749;DHT22;2388;53.582;9.962;2023-02-26T06:19:49;0.20;99.90
4749;DHT22;2388;53.582;9.962;2023-02-26T06:22:16;0.30;99.90
4749;DHT22;2388;53.582;9.962;2023-02-26T06:24:42;0.20;99.90
4749;DHT22;2388;53.582;9.962;2023-02-26T06:27:08;0.20;99.90
4749;DHT22;2388;53.582;9.962;2023-02-26T06:29:33;0.20;99.90
4749;DHT22;2388;53.582;9.962;2023-02-26T06:32:00;0.20;99.90
4749;DHT22;2388;53.582;9.962;2023-02-26T06:34:26;0.20;99.90
4749;DHT22;2388;53.582;9.962;2023-02-26T06:36:51;0.20;99.90
4749;DHT22;2388;53.582;9.962;2023-02-26T06:39:16;0.20;99.90
4749;DHT22;2388;53.582;9.962;2023-02-26T06:41:42;0.20;99.90
4749;DHT22;2388;53.582;9.962;2023-02-26T06:44:09;0.10;99.90
4749;DHT22;2388;53.582;9.962;2023-02-26T06:46:35;0.10;99.90
4749;DHT22;2388;53.582;9.962;2023-02-26T06:49:01;0.20;99.90
4749;DHT22;2388;53.582;9.962;2023-02-26T06:51:26;0.20;99.90
4749;DHT22;2388;53.582;9.962;2023-02-26T06:53:52;0.20;99.90
4749;DHT22;2388;53.582;9.962;2023-02-26T06:56:17;0.20;99.90
4749;DHT22;2388;53.582;9.962;2023-02-26T06:58:43;0.30;99.90
4749;DHT22;2388;53.582;9.962;2023-02-26T07:01:08;0.40;99.90
4749;DHT22;2388;53.582;9.962;2023-02-26T07:03:34;0.40;99.90
4749;DHT22;2388;53.582;9.962;2023-02-26T07:06:00;1.50;99.90
4749;DHT22;2388;53.582;9.962;2023-02-26T07:08:25;0.50;99.90
4749;DHT22;2388;53.582;9.962;2023-02-26T07:10:51;0.50;99.90
4749;DHT22;2388;53.582;9.962;2023-02-26T07:13:17;0.50;99.90
4749;DHT22;2388;53.582;9.962;2023-02-26T07:15:42;0.60;99.90
4749;DHT22;2388;53.582;9.962;2023-02-26T07:18:08;0.60;99.90
4749;DHT22;2388;53.582;9.962;2023-02-26T07:20:33;0.60;99.90
4749;DHT22;2388;53.582;9.962;2023-02-26T07:22:59;0.60;99.90
4749;DHT22;2388;53.582;9.962;2023-02-26T07:25:25;0.70;99.90
4749;DHT22;2388;53.582;9.962;2023-02-26T07:27:50;0.70;99.90
4749;DHT22;2388;53.582;9.962;2023-02-26T07:30:17;0.70;99.90
4749;DHT22;2388;53.582;9.962;2023-02-26T07:32:43;0.70;99.90
4749;DHT22;2388;53.582;9.962;2023-02-26T07:35:09;0.70;99.90
4749;DHT22;2388;53.582;9.962;2023-02-26T07:37:35;0.70;99.90
4749;DHT22;2388;53.582;9.962;2023-02-26T07:40:00;0.60;99.90
4749;DHT22;2388;53.582;9.962;2023-02-26T07:42:25;0.60;99.90
4749;DHT22;2388;53.582;9.962;2023-02-26T07:44:51;0.70;99.90
4749;DHT22;2388;53.582;9.962;2023-02-26T07:47:17;0.70;99.90
4749;DHT22;2388;53.582;9.962;2023-02-26T07:49:42;0.70;99.90
4749;DHT22;2388;53.582;9.962;2023-02-26T07:52:08;0.70;99.90
4749;DHT22;2388;53.582;9.962;2023-02-26T07:54:34;0.80;99.90
4749;DHT22;2388;53.582;9.962;2023-02-26T07:57:01;0.80;99.90
4749;DHT22;2388;53.582;9.962;2023-02-26T07:59:27;0.80;99.90
4749;DHT22;2388;53.582;9.962;2023-02-26T08:01:53;0.80;99.90
4749;DHT22;2388;53.582;9.962;2023-02-26T08:04:18;0.90;99.90
4749;DHT22;2388;53.582;9.962;2023-02-26T08:09:10;1.00;99.90
4749;DHT22;2388;53.582;9.962;2023-02-26T08:11:36;1.00;99.90
4749;DHT22;2388;53.582;9.962;2023-02-26T08:14:05;0.00;99.90
4749;DHT22;2388;53.582;9.962;2023-02-26T08:16:31;1.00;99.90
4749;DHT22;2388;53.582;9.962;2023-02-26T08:18:56;1.10;99.90
4749;DHT22;2388;53.582;9.962;2023-02-26T08:21:22;1.10;99.90
4749;DHT22;2388;53.582;9.962;2023-02-26T08:23:48;1.20;99.90
4749;DHT22;2388;53.582;9.962;2023-02-26T08:26:13;1.30;99.90
4749;DHT22;2388;53.582;9.962;2023-02-26T08:28:39;1.30;99.90
4749;DHT22;2388;53.582;9.962;2023-02-26T08:31:05;1.30;99.90
4749;DHT22;2388;53.582;9.962;2023-02-26T08:33:31;1.30;99.90
4749;DHT22;2388;53.582;9.962;2023-02-26T08:35:56;1.40;99.90
4749;DHT22;2388;53.582;9.962;2023-02-26T08:38:24;1.40;99.90
4749;DHT22;2388;53.582;9.962;2023-02-26T08:40:49;1.50;99.90
4749;DHT22;2388;53.582;9.962;2023-02-26T08:43:17;1.50;99.90
4749;DHT22;2388;53.582;9.962;2023-02-26T08:45:43;1.50;99.90
4749;DHT22;2388;53.582;9.962;2023-02-26T08:48:09;1.60;99.90
4749;DHT22;2388;53.582;9.962;2023-02-26T08:50:34;1.60;99.90
4749;DHT22;2388;53.582;9.962;2023-02-26T08:53:00;1.60;99.90
4749;DHT22;2388;53.582;9.962;2023-02-26T08:55:26;1.70;99.90
4749;DHT22;2388;53.582;9.962;2023-02-26T08:57:51;1.70;99.90
4749;DHT22;2388;53.582;9.962;2023-02-26T09:00:17;1.70;99.90
4749;DHT22;2388;53.582;9.962;2023-02-26T09:02:44;1.80;99.90
4749;DHT22;2388;53.582;9.962;2023-02-26T09:05:10;1.80;99.90
4749;DHT22;2388;53.582;9.962;2023-02-26T09:07:36;1.80;99.90
4749;DHT22;2388;53.582;9.962;2023-02-26T09:10:02;1.80;99.90
4749;DHT22;2388;53.582;9.962;2023-02-26T09:12:28;1.80;99.90
4749;DHT22;2388;53.582;9.962;2023-02-26T09:14:53;1.80;99.90
4749;DHT22;2388;53.582;9.962;2023-02-26T09:17:19;1.90;99.90
4749;DHT22;2388;53.582;9.962;2023-02-26T09:19:44;2.00;99.90
4749;DHT22;2388;53.582;9.962;2023-02-26T09:22:10;2.00;99.90
4749;DHT22;2388;53.582;9.962;2023-02-26T09:24:35;2.10;99.90
4749;DHT22;2388;53.582;9.962;2023-02-26T09:27:01;2.10;99.90
4749;DHT22;2388;53.582;9.962;2023-02-26T09:29:27;2.20;99.90
4749;DHT22;2388;53.582;9.962;2023-02-26T09:31:53;2.20;99.90
4749;DHT22;2388;53.582;9.962;2023-02-26T09:34:19;2.20;99.90
4749;DHT22;2388;53.582;9.962;2023-02-26T09:36:44;2.30;99.90
4749;DHT22;2388;53.582;9.962;2023-02-26T09:39:11;2.40;99.90
4749;DHT22;2388;53.582;9.962;2023-02-26T09:41:40;2.50;99.90
4749;DHT22;2388;53.582;9.962;2023-02-26T09:50:12;2.70;99.90
4749;DHT22;2388;53.582;9.962;2023-02-26T09:52:50;2.70;99.90
4749;DHT22;2388;53.582;9.962;2023-02-26T09:55:27;2.80;99.90
4749;DHT22;2388;53.582;9.962;2023-02-26T09:58:03;2.80;99.90
4749;DHT22;2388;53.582;9.962;2023-02-26T10:00:35;2.90;99.90
4749;DHT22;2388;53.582;9.962;2023-02-26T10:03:36;2.90;99.90
4749;DHT22;2388;53.582;9.962;2023-02-26T10:06:29;3.00;99.90
4749;DHT22;2388;53.582;9.962;2023-02-26T10:09:28;3.00;99.90
4749;DHT22;2388;53.582;9.962;2023-02-26T10:11:59;3.00;99.90
4749;DHT22;2388;53.582;9.962;2023-02-26T10:19:55;3.00;99.90
4749;DHT22;2388;53.582;9.962;2023-02-26T10:22:28;3.00;99.90
4749;DHT22;2388;53.582;9.962;2023-02-26T10:25:30;3.00;99.90
4749;DHT22;2388;53.582;9.962;2023-02-26T10:30:39;3.10;99.90
4749;DHT22;2388;53.582;9.962;2023-02-26T10:38:50;3.40;99.90
4749;DHT22;2388;53.582;9.962;2023-02-26T10:41:20;3.50;99.90
4749;DHT22;2388;53.582;9.962;2023-02-26T10:43:50;3.50;99.90
4749;DHT22;2388;53.582;9.962;2023-02-26T10:46:33;3.60;99.90
4749;DHT22;2388;53.582;9.962;2023-02-26T10:49:31;3.70;99.90
4749;DHT22;2388;53.582;9.962;2023-02-26T10:52:17;3.80;99.90
4749;DHT22;2388;53.582;9.962;2023-02-26T10:57:36;4.00;99.90
4749;DHT22;2388;53.582;9.962;2023-02-26T11:00:05;4.00;99.90
4749;DHT22;2388;53.582;9.962;2023-02-26T11:02:39;4.10;99.90
4749;DHT22;2388;53.582;9.962;2023-02-26T11:05:12;4.10;99.90
4749;DHT22;2388;53.582;9.962;2023-02-26T11:07:40;4.20;99.90
4749;DHT22;2388;53.582;9.962;2023-02-26T11:10:15;4.20;99.90
4749;DHT22;2388;53.582;9.962;2023-02-26T11:12:41;4.20;99.90
4749;DHT22;2388;53.582;9.962;2023-02-26T11:15:18;4.30;99.90
4749;DHT22;2388;53.582;9.962;2023-02-26T11:17:46;4.30;99.90
4749;DHT22;2388;53.582;9.962;2023-02-26T11:20:23;4.30;99.90
4749;DHT22;2388;53.582;9.962;2023-02-26T11:22:52;4.60;99.90
4749;DHT22;2388;53.582;9.962;2023-02-26T11:25:23;4.70;99.90
4749;DHT22;2388;53.582;9.962;2023-02-26T11:27:55;4.70;99.90
4749;DHT22;2388;53.582;9.962;2023-02-26T11:30:25;4.70;99.90
4749;DHT22;2388;53.582;9.962;2023-02-26T11:32:52;4.70;99.90
4749;DHT22;2388;53.582;9.962;2023-02-26T11:35:23;5.00;99.90
4749;DHT22;2388;53.582;9.962;2023-02-26T11:37:58;4.80;99.90
4749;DHT22;2388;53.582;9.962;2023-02-26T11:40:38;4.60;99.90
4749;DHT22;2388;53.582;9.962;2023-02-26T11:43:06;4.60;99.90
4749;DHT22;2388;53.582;9.962;2023-02-26T11:45:35;4.50;99.90
4749;DHT22;2388;53.582;9.962;2023-02-26T11:48:05;4.40;99.90
4749;DHT22;2388;53.582;9.962;2023-02-26T11:50:41;4.40;99.90
4749;DHT22;2388;53.582;9.962;2023-02-26T11:53:58;4.40;99.90
4749;DHT22;2388;53.582;9.962;2023-02-26T11:56:10;4.40;99.90
4749;DHT22;2388;53.582;9.962;2023-02-26T11:58:38;4.40;99.90
4749;DHT22;2388;53.582;9.962;2023-02-26T12:01:06;4.30;99.90
4749;DHT22;2388;53.582;9.962;2023-02-26T12:03:35;4.40;99.90
4749;DHT22;2388;53.582;9.962;2023-02-26T12:06:02;4.40;99.90
4749;DHT22;2388;53.582;9.962;2023-02-26T12:08:29;4.40;99.90
4749;DHT22;2388;53.582;9.962;2023-02-26T12:11:29;4.40;99.90
4749;DHT22;2388;53.582;9.962;2023-02-26T12:14:09;4.50;99.90
4749;DHT22;2388;53.582;9.962;2023-02-26T12:22:28;4.80;99.90
4749;DHT22;2388;53.582;9.962;2023-02-26T12:25:23;5.00;99.90
4749;DHT22;2388;53.582;9.962;2023-02-26T12:28:16;5.00;99.90
4749;DHT22;2388;53.582;9.962;2023-02-26T12:33:24;5.40;99.90
4749;DHT22;2388;53.582;9.962;2023-02-26T12:36:20;5.50;99.90
4749;DHT22;2388;53.582;9.962;2023-02-26T12:39:05;5.60;99.90
4749;DHT22;2388;53.582;9.962;2023-02-26T12:41:57;5.60;99.90
4749;DHT22;2388;53.582;9.962;2023-02-26T12:44:37;5.50;99.90
4749;DHT22;2388;53.582;9.962;2023-02-26T12:47:47;5.50;99.90
4749;DHT22;2388;53.582;9.962;2023-02-26T12:50:23;5.40;99.90
4749;DHT22;2388;53.582;9.962;2023-02-26T12:55:36;5.20;99.90
4749;DHT22;2388;53.582;9.962;2023-02-26T13:00:58;5.00;99.90
4749;DHT22;2388;53.582;9.962;2023-02-26T13:03:41;5.00;99.90
4749;DHT22;2388;53.582;9.962;2023-02-26T13:06:31;4.90;99.90
4749;DHT22;2388;53.582;9.962;2023-02-26T13:15:36;5.10;99.90
4749;DHT22;2388;53.582;9.962;2023-02-26T13:18:14;5.10;99.90
4749;DHT22;2388;53.582;9.962;2023-02-26T13:23:51;5.10;99.90
4749;DHT22;2388;53.582;9.962;2023-02-26T13:26:18;5.20;99.90
4749;DHT22;2388;53.582;9.962;2023-02-26T13:31:53;5.10;99.90
4749;DHT22;2388;53.582;9.962;2023-02-26T13:37:22;5.00;99.90
4749;DHT22;2388;53.582;9.962;2023-02-26T13:42:45;5.10;99.90
4749;DHT22;2388;53.582;9.962;2023-02-26T13:45:37;5.20;99.90
4749;DHT22;2388;53.582;9.962;2023-02-26T13:48:32;5.20;99.90
4749;DHT22;2388;53.582;9.962;2023-02-26T13:53:52;5.10;99.90
4749;DHT22;2388;53.582;9.962;2023-02-26T14:01:53;5.10;99.90
4749;DHT22;2388;53.582;9.962;2023-02-26T14:06:47;5.20;99.90
4749;DHT22;2388;53.582;9.962;2023-02-26T14:19:41;5.40;99.90
4749;DHT22;2388;53.582;9.962;2023-02-26T14:25:18;5.30;99.90
4749;DHT22;2388;53.582;9.962;2023-02-26T14:27:46;5.30;99.90
4749;DHT22;2388;53.582;9.962;2023-02-26T14:30:31;5.20;99.90
4749;DHT22;2388;53.582;9.962;2023-02-26T14:35:40;5.10;99.90
4749;DHT22;2388;53.582;9.962;2023-02-26T14:40:58;5.00;99.90
4749;DHT22;2388;53.582;9.962;2023-02-26T14:43:40;5.00;99.90
4749;DHT22;2388;53.582;9.962;2023-02-26T14:46:08;5.00;99.90
4749;DHT22;2388;53.582;9.962;2023-02-26T14:48:35;5.00;99.90
4749;DHT22;2388;53.582;9.962;2023-02-26T14:56:49;5.10;99.90
4749;DHT22;2388;53.582;9.962;2023-02-26T14:59:52;5.10;99.90
4749;DHT22;2388;53.582;9.962;2023-02-26T15:02:25;5.10;99.90
4749;DHT22;2388;53.582;9.962;2023-02-26T15:19:13;4.80;99.90
4749;DHT22;2388;53.582;9.962;2023-02-26T15:22:00;4.80;99.90
4749;DHT22;2388;53.582;9.962;2023-02-26T15:24:28;4.80;99.90
4749;DHT22;2388;53.582;9.962;2023-02-26T15:26:59;4.80;99.90
4749;DHT22;2388;53.582;9.962;2023-02-26T15:29:29;4.80;99.90
4749;DHT22;2388;53.582;9.962;2023-02-26T15:32:04;4.70;99.90
4749;DHT22;2388;53.582;9.962;2023-02-26T15:34:30;4.70;99.90
4749;DHT22;2388;53.582;9.962;2023-02-26T15:36:57;4.70;99.90
4749;DHT22;2388;53.582;9.962;2023-02-26T15:39:24;4.70;99.90
4749;DHT22;2388;53.582;9.962;2023-02-26T15:41:51;4.70;99.90
4749;DHT22;2388;53.582;9.962;2023-02-26T15:44:25;4.70;99.90
4749;DHT22;2388;53.582;9.962;2023-02-26T15:46:57;4.60;99.90
4749;DHT22;2388;53.582;9.962;2023-02-26T15:51:51;4.60;99.90
4749;DHT22;2388;53.582;9.962;2023-02-26T15:54:20;4.60;99.90
4749;DHT22;2388;53.582;9.962;2023-02-26T15:56:46;4.60;99.90
4749;DHT22;2388;53.582;9.962;2023-02-26T15:59:16;4.60;99.90
4749;DHT22;2388;53.582;9.962;2023-02-26T16:01:42;3.70;99.90
4749;DHT22;2388;53.582;9.962;2023-02-26T16:04:14;4.60;99.90
4749;DHT22;2388;53.582;9.962;2023-02-26T16:06:48;4.70;99.90
4749;DHT22;2388;53.582;9.962;2023-02-26T16:09:24;4.70;99.90
4749;DHT22;2388;53.582;9.962;2023-02-26T16:12:00;4.70;99.90
4749;DHT22;2388;53.582;9.962;2023-02-26T16:14:35;4.70;99.90
4749;DHT22;2388;53.582;9.962;2023-02-26T16:17:04;4.70;99.90
4749;DHT22;2388;53.582;9.962;2023-02-26T16:19:43;4.70;99.90
4749;DHT22;2388;53.582;9.962;2023-02-26T16:22:28;4.70;99.90
4749;DHT22;2388;53.582;9.962;2023-02-26T16:24:59;4.60;99.90
4749;DHT22;2388;53.582;9.962;2023-02-26T16:27:27;4.60;99.90
4749;DHT22;2388;53.582;9.962;2023-02-26T16:29:56;4.60;99.90
4749;DHT22;2388;53.582;9.962;2023-02-26T16:32:23;4.50;99.90
4749;DHT22;2388;53.582;9.962;2023-02-26T16:34:52;4.50;99.90
4749;DHT22;2388;53.582;9.962;2023-02-26T16:48:03;4.40;99.90
4749;DHT22;2388;53.582;9.962;2023-02-26T16:50:33;4.40;99.90
4749;DHT22;2388;53.582;9.962;2023-02-26T16:53:06;4.40;99.90
4749;DHT22;2388;53.582;9.962;2023-02-26T16:55:35;4.40;99.90
4749;DHT22;2388;53.582;9.962;2023-02-26T16:58:04;4.40;99.90
4749;DHT22;2388;53.582;9.962;2023-02-26T17:00:32;4.40;99.90
4749;DHT22;2388;53.582;9.962;2023-02-26T17:03:11;4.40;99.90
4749;DHT22;2388;53.582;9.962;2023-02-26T17:05:39;4.40;99.90
4749;DHT22;2388;53.582;9.962;2023-02-26T17:08:15;4.30;99.90
4749;DHT22;2388;53.582;9.962;2023-02-26T17:10:53;4.30;99.90
4749;DHT22;2388;53.582;9.962;2023-02-26T17:13:30;4.30;99.90
4749;DHT22;2388;53.582;9.962;2023-02-26T17:16:04;4.30;99.90
4749;DHT22;2388;53.582;9.962;2023-02-26T17:18:32;4.30;99.90
4749;DHT22;2388;53.582;9.962;2023-02-26T17:20:58;4.20;99.90
4749;DHT22;2388;53.582;9.962;2023-02-26T17:23:29;4.20;99.90
4749;DHT22;2388;53.582;9.962;2023-02-26T17:25:55;4.20;99.90
4749;DHT22;2388;53.582;9.962;2023-02-26T17:28:40;4.20;99.90
4749;DHT22;2388;53.582;9.962;2023-02-26T17:31:07;4.20;99.90
4749;DHT22;2388;53.582;9.962;2023-02-26T17:33:33;4.10;99.90
4749;DHT22;2388;53.582;9.962;2023-02-26T17:36:01;4.10;99.90
4749;DHT22;2388;53.582;9.962;2023-02-26T17:38:27;4.00;99.90
4749;DHT22;2388;53.582;9.962;2023-02-26T17:40:53;4.00;99.90
4749;DHT22;2388;53.582;9.962;2023-02-26T17:43:20;4.00;99.90
4749;DHT22;2388;53.582;9.962;2023-02-26T17:45:46;3.90;99.90
4749;DHT22;2388;53.582;9.962;2023-02-26T17:48:14;3.90;99.90
4749;DHT22;2388;53.582;9.962;2023-02-26T17:50:56;3.90;99.90
4749;DHT22;2388;53.582;9.962;2023-02-26T17:53:24;3.90;99.90
4749;DHT22;2388;53.582;9.962;2023-02-26T17:55:54;3.80;99.90
4749;DHT22;2388;53.582;9.962;2023-02-26T17:58:29;3.80;99.90
4749;DHT22;2388;53.582;9.962;2023-02-26T18:00:55;3.80;99.90
4749;DHT22;2388;53.582;9.962;2023-02-26T18:03:21;3.70;99.90
4749;DHT22;2388;53.582;9.962;2023-02-26T18:05:47;3.70;99.90
4749;DHT22;2388;53.582;9.962;2023-02-26T18:10:47;3.70;99.90
4749;DHT22;2388;53.582;9.962;2023-02-26T18:13:13;3.60;99.90
4749;DHT22;2388;53.582;9.962;2023-02-26T18:15:38;3.60;99.90
4749;DHT22;2388;53.582;9.962;2023-02-26T18:18:04;3.60;99.90
4749;DHT22;2388;53.582;9.962;2023-02-26T18:20:31;3.60;99.90
4749;DHT22;2388;53.582;9.962;2023-02-26T18:22:57;3.60;99.90
4749;DHT22;2388;53.582;9.962;2023-02-26T18:25:22;3.50;99.90
4749;DHT22;2388;53.582;9.962;2023-02-26T18:27:53;3.50;99.90
4749;DHT22;2388;53.582;9.962;2023-02-26T18:30:26;3.50;99.90
4749;DHT22;2388;53.582;9.962;2023-02-26T18:32:53;3.50;99.90
4749;DHT22;2388;53.582;9.962;2023-02-26T18:35:18;3.40;99.90
4749;DHT22;2388;53.582;9.962;2023-02-26T18:37:44;3.40;99.90
4749;DHT22;2388;53.582;9.962;2023-02-26T18:40:16;3.40;99.90
4749;DHT22;2388;53.582;9.962;2023-02-26T18:42:42;3.40;99.90
4749;DHT22;2388;53.582;9.962;2023-02-26T18:45:09;3.30;99.90
4749;DHT22;2388;53.582;9.962;2023-02-26T18:47:36;3.30;99.90
4749;DHT22;2388;53.582;9.962;2023-02-26T18:50:03;3.30;99.90
4749;DHT22;2388;53.582;9.962;2023-02-26T18:52:28;3.20;99.90
4749;DHT22;2388;53.582;9.962;2023-02-26T18:54:54;3.20;99.90
4749;DHT22;2388;53.582;9.962;2023-02-26T18:57:19;3.20;99.90
4749;DHT22;2388;53.582;9.962;2023-02-26T18:59:45;3.20;99.90
4749;DHT22;2388;53.582;9.962;2023-02-26T19:02:11;3.20;99.90
4749;DHT22;2388;53.582;9.962;2023-02-26T19:04:38;3.20;99.90